MSC Maria Saveria — 3FLE8 — position and weather

sailwx.info

Track history (hours):
 
Tides and Currents Weather Stations Pressure Air Temp Water Temp Dewpoint Dewpoint Depression Visibility Wind Speed Wind Dir Waves Ship Positions

MSC Maria Saveria

Last reported at 2019-Mar-17 02:42 UTC. Time now 2019-Mar-23 05:09 UTC.
Position N 30°45' E 123°04'.

Length 366 m; draft 13.2 m.

Type: Ship (hazmat cat A). MMSI: 372400000.

Date/timePositionNaut miles runAvg speedWind from/ knotsBaromVisibWave heightAir tempDewpointWater temp
2019-Mar-17 02:42N 30°45' E 123°04'518.9
2019-Mar-17 02:26N 30°43' E 122°58'716.9
2019-Mar-17 01:59N 30°39' E 122°51'916.7
2019-Mar-17 01:27N 30°35' E 122°42'716.5
2019-Mar-17 01:00N 30°32' E 122°34'1214.1
2019-Mar-17 00:10N 30°32' E 122°20'412.5
2019-Mar-16 23:50N 30°33' E 122°16'514.0
2019-Mar-16 23:27N 30°34' E 122°09'5 6.9
2019-Mar-16 22:42N 30°37' E 122°04'0 0.0
2019-Mar-16 18:53N 30°37' E 122°04'0 0.0
2019-Mar-16 09:29N 30°37' E 122°04'0 0.0
2019-Mar-16 05:29N 30°37' E 122°04'0 0.0
2019-Mar-15 20:59N 30°37' E 122°04'0 0.5
2019-Mar-15 20:08N 30°37' E 122°04'0 1.3
2019-Mar-15 20:00N 30°37' E 122°04'4 7.5
2019-Mar-15 19:30N 30°35' E 122°08'815.4
2019-Mar-15 19:00N 30°33' E 122°16'510.0
2019-Mar-15 18:30N 30°33' E 122°22'4 8.8
2019-Mar-15 18:01N 30°32' E 122°27'8 1.2
2019-Mar-15 11:44N 30°27' E 122°34'0 0.1
2019-Mar-15 11:23N 30°27' E 122°34'0 0.1
2019-Mar-15 10:53N 30°27' E 122°34'  
2019-Mar-11 06:15N 25°38' E 120°29'6213.9
2019-Mar-11 01:46N 24°48' E 119°47'415.0
2019-Mar-11 01:30N 24°46' E 119°44'5315.6
2019-Mar-10 22:07N 24°11' E 119°00'1315.4
2019-Mar-10 21:15N 24°02' E 118°49'415.2
2019-Mar-10 20:57N 23°59' E 118°45'715.0
2019-Mar-10 20:29N 23°55' E 118°40'715.1
2019-Mar-10 20:01N 23°50' E 118°34'815.3
2019-Mar-10 19:30N 23°45' E 118°27'815.1
2019-Mar-10 19:00N 23°40' E 118°21'815.4
2019-Mar-10 18:30N 23°35' E 118°14'815.2
2019-Mar-10 18:00N 23°31' E 118°08'814.7
2019-Mar-10 17:28N 23°26' E 118°01'715.0
2019-Mar-10 17:00N 23°22' E 117°55'915.7
2019-Mar-10 16:27N 23°16' E 117°48'715.7
2019-Mar-10 16:00N 23°12' E 117°42'  
Track history (hours):
 
Tides and Currents Weather Stations Pressure Air Temp Water Temp Dewpoint Dewpoint Depression Visibility Wind Speed Wind Dir Waves Ship Positions

MSC Maria Saveria

Last reported at 2019-Mar-17 02:42 UTC. Time now 2019-Mar-23 05:09 UTC.
Position N 30°45' E 123°04'.

Length 366 m; draft 13.2 m.

Type: Ship (hazmat cat A). MMSI: 372400000.

Date/timePositionNaut miles runAvg speedWind from/ knotsBaromVisibWave heightAir tempDewpointWater temp
2019-Mar-17 02:42N 30°45' E 123°04'518.9
2019-Mar-17 02:26N 30°43' E 122°58'716.9
2019-Mar-17 01:59N 30°39' E 122°51'916.7
2019-Mar-17 01:27N 30°35' E 122°42'716.5
2019-Mar-17 01:00N 30°32' E 122°34'1214.1
2019-Mar-17 00:10N 30°32' E 122°20'412.5
2019-Mar-16 23:50N 30°33' E 122°16'514.0
2019-Mar-16 23:27N 30°34' E 122°09'5 6.9
2019-Mar-16 22:42N 30°37' E 122°04'0 0.0
2019-Mar-16 18:53N 30°37' E 122°04'0 0.0
2019-Mar-16 09:29N 30°37' E 122°04'0 0.0
2019-Mar-16 05:29N 30°37' E 122°04'0 0.0
2019-Mar-15 20:59N 30°37' E 122°04'0 0.5
2019-Mar-15 20:08N 30°37' E 122°04'0 1.3
2019-Mar-15 20:00N 30°37' E 122°04'4 7.5
2019-Mar-15 19:30N 30°35' E 122°08'815.4
2019-Mar-15 19:00N 30°33' E 122°16'510.0
2019-Mar-15 18:30N 30°33' E 122°22'4 8.8
2019-Mar-15 18:01N 30°32' E 122°27'8 1.2
2019-Mar-15 11:44N 30°27' E 122°34'0 0.1
2019-Mar-15 11:23N 30°27' E 122°34'0 0.1
2019-Mar-15 10:53N 30°27' E 122°34'  
2019-Mar-11 06:15N 25°38' E 120°29'6213.9
2019-Mar-11 01:46N 24°48' E 119°47'415.0
2019-Mar-11 01:30N 24°46' E 119°44'5315.6
2019-Mar-10 22:07N 24°11' E 119°00'1315.4
2019-Mar-10 21:15N 24°02' E 118°49'415.2
2019-Mar-10 20:57N 23°59' E 118°45'715.0
2019-Mar-10 20:29N 23°55' E 118°40'715.1
2019-Mar-10 20:01N 23°50' E 118°34'815.3
2019-Mar-10 19:30N 23°45' E 118°27'815.1
2019-Mar-10 19:00N 23°40' E 118°21'815.4
2019-Mar-10 18:30N 23°35' E 118°14'815.2
2019-Mar-10 18:00N 23°31' E 118°08'814.7
2019-Mar-10 17:28N 23°26' E 118°01'715.0
2019-Mar-10 17:00N 23°22' E 117°55'915.7
2019-Mar-10 16:27N 23°16' E 117°48'715.7
2019-Mar-10 16:00N 23°12' E 117°42'  

Dump ship's entire track history